sensor_id;sensor_type;location;lat;lon;timestamp;pressure;altitude;pressure_sealevel;temperature;humidity
55610;BME280;41486;52.502;13.486;2023-02-21T00:01:36;100641.97;;;8.26;100.00
55610;BME280;41486;52.502;13.486;2023-02-21T00:04:22;100636.66;;;8.28;100.00
55610;BME280;41486;52.502;13.486;2023-02-21T00:07:08;100646.56;;;8.23;100.00
55610;BME280;41486;52.502;13.486;2023-02-21T00:09:53;100628.44;;;8.19;100.00
55610;BME280;41486;52.502;13.486;2023-02-21T00:12:38;100630.84;;;8.23;100.00
55610;BME280;41486;52.502;13.486;2023-02-21T00:15:24;100627.41;;;8.22;100.00
55610;BME280;41486;52.502;13.486;2023-02-21T00:18:09;100629.50;;;8.17;100.00
55610;BME280;41486;52.502;13.486;2023-02-21T00:20:54;100618.78;;;8.20;100.00
55610;BME280;41486;52.502;13.486;2023-02-21T00:23:41;100630.84;;;8.23;100.00
55610;BME280;41486;52.502;13.486;2023-02-21T00:26:27;100615.44;;;8.18;100.00
55610;BME280;41486;52.502;13.486;2023-02-21T00:29:13;100611.03;;;8.18;100.00
55610;BME280;41486;52.502;13.486;2023-02-21T00:31:58;100613.66;;;8.18;100.00
55610;BME280;41486;52.502;13.486;2023-02-21T00:34:43;100615.13;;;8.23;100.00
55610;BME280;41486;52.502;13.486;2023-02-21T00:37:29;100606.53;;;8.20;100.00
55610;BME280;41486;52.502;13.486;2023-02-21T00:40:16;100626.53;;;8.21;100.00
55610;BME280;41486;52.502;13.486;2023-02-21T00:43:01;100595.09;;;8.21;100.00
55610;BME280;41486;52.502;13.486;2023-02-21T00:45:47;100601.00;;;8.25;100.00
55610;BME280;41486;52.502;13.486;2023-02-21T00:48:32;100591.34;;;8.26;100.00
55610;BME280;41486;52.502;13.486;2023-02-21T00:51:17;100614.09;;;8.25;100.00
55610;BME280;41486;52.502;13.486;2023-02-21T00:54:03;100600.56;;;8.31;100.00
55610;BME280;41486;52.502;13.486;2023-02-21T00:56:49;100590.16;;;8.30;100.00
55610;BME280;41486;52.502;13.486;2023-02-21T00:59:34;100594.38;;;8.32;100.00
55610;BME280;41486;52.502;13.486;2023-02-21T01:02:19;100595.31;;;8.31;100.00
55610;BME280;41486;52.502;13.486;2023-02-21T01:05:05;100570.56;;;8.35;100.00
55610;BME280;41486;52.502;13.486;2023-02-21T01:07:51;100574.66;;;8.40;100.00
55610;BME280;41486;52.502;13.486;2023-02-21T01:10:39;100577.91;;;8.43;100.00
55610;BME280;41486;52.502;13.486;2023-02-21T01:13:26;100576.34;;;8.41;100.00
55610;BME280;41486;52.502;13.486;2023-02-21T01:16:11;100582.53;;;8.40;100.00
55610;BME280;41486;52.502;13.486;2023-02-21T01:18:56;100571.94;;;8.41;100.00
55610;BME280;41486;52.502;13.486;2023-02-21T01:21:42;100578.34;;;8.37;100.00
55610;BME280;41486;52.502;13.486;2023-02-21T01:24:27;100570.38;;;8.39;100.00
55610;BME280;41486;52.502;13.486;2023-02-21T01:27:12;100568.38;;;8.42;100.00
55610;BME280;41486;52.502;13.486;2023-02-21T01:29:59;100582.09;;;8.46;100.00
55610;BME280;41486;52.502;13.486;2023-02-21T01:32:45;100583.88;;;8.45;100.00
55610;BME280;41486;52.502;13.486;2023-02-21T01:35:30;100573.38;;;8.45;100.00
55610;BME280;41486;52.502;13.486;2023-02-21T01:38:15;100529.56;;;8.47;100.00
55610;BME280;41486;52.502;13.486;2023-02-21T01:41:01;100561.91;;;8.48;100.00
55610;BME280;41486;52.502;13.486;2023-02-21T01:43:58;100559.06;;;8.51;100.00
55610;BME280;41486;52.502;13.486;2023-02-21T01:46:45;100554.66;;;8.51;100.00
55610;BME280;41486;52.502;13.486;2023-02-21T01:49:30;100564.22;;;8.52;100.00
55610;BME280;41486;52.502;13.486;2023-02-21T01:52:16;100571.22;;;8.52;100.00
55610;BME280;41486;52.502;13.486;2023-02-21T01:55:03;100558.09;;;8.52;100.00
55610;BME280;41486;52.502;13.486;2023-02-21T01:57:50;100559.78;;;8.53;100.00
55610;BME280;41486;52.502;13.486;2023-02-21T02:00:36;100549.09;;;8.56;100.00
55610;BME280;41486;52.502;13.486;2023-02-21T02:03:24;100550.88;;;8.56;100.00
55610;BME280;41486;52.502;13.486;2023-02-21T02:06:13;100544.47;;;8.60;100.00
55610;BME280;41486;52.502;13.486;2023-02-21T02:09:13;100553.59;;;8.67;100.00
55610;BME280;41486;52.502;13.486;2023-02-21T02:12:15;100559.91;;;8.64;100.00
55610;BME280;41486;52.502;13.486;2023-02-21T02:15:22;100545.41;;;8.59;100.00
55610;BME280;41486;52.502;13.486;2023-02-21T02:18:22;100541.84;;;8.60;100.00
55610;BME280;41486;52.502;13.486;2023-02-21T02:21:19;100539.31;;;8.58;100.00
55610;BME280;41486;52.502;13.486;2023-02-21T02:24:10;100552.84;;;8.65;100.00
55610;BME280;41486;52.502;13.486;2023-02-21T02:27:03;100544.16;;;8.64;100.00
55610;BME280;41486;52.502;13.486;2023-02-21T02:30:02;100531.75;;;8.66;100.00
55610;BME280;41486;52.502;13.486;2023-02-21T02:32:53;100535.72;;;8.72;100.00
55610;BME280;41486;52.502;13.486;2023-02-21T02:35:27;100531.22;;;8.74;100.00
55610;BME280;41486;52.502;13.486;2023-02-21T02:38:01;100527.34;;;8.80;100.00
55610;BME280;41486;52.502;13.486;2023-02-21T02:40:35;100528.91;;;8.82;100.00
55610;BME280;41486;52.502;13.486;2023-02-21T02:43:15;100519.13;;;8.84;100.00
55610;BME280;41486;52.502;13.486;2023-02-21T02:45:48;100525.09;;;8.87;100.00
55610;BME280;41486;52.502;13.486;2023-02-21T02:48:22;100519.53;;;8.91;100.00
55610;BME280;41486;52.502;13.486;2023-02-21T02:50:55;100526.44;;;8.92;100.00
55610;BME280;41486;52.502;13.486;2023-02-21T02:53:25;100518.69;;;8.91;100.00
55610;BME280;41486;52.502;13.486;2023-02-21T02:55:57;100520.59;;;8.89;100.00
55610;BME280;41486;52.502;13.486;2023-02-21T02:58:28;100529.19;;;8.91;100.00
55610;BME280;41486;52.502;13.486;2023-02-21T03:01:16;100524.69;;;8.93;100.00
55610;BME280;41486;52.502;13.486;2023-02-21T03:04:00;100522.88;;;8.93;100.00
55610;BME280;41486;52.502;13.486;2023-02-21T03:06:40;100515.94;;;8.92;100.00
55610;BME280;41486;52.502;13.486;2023-02-21T03:09:13;100536.22;;;8.90;100.00
55610;BME280;41486;52.502;13.486;2023-02-21T03:11:52;100521.31;;;8.91;100.00
55610;BME280;41486;52.502;13.486;2023-02-21T03:14:28;100526.25;;;8.95;100.00
55610;BME280;41486;52.502;13.486;2023-02-21T03:17:01;100526.25;;;8.95;100.00
55610;BME280;41486;52.502;13.486;2023-02-21T03:19:32;100521.00;;;8.95;100.00
55610;BME280;41486;52.502;13.486;2023-02-21T03:22:06;100532.31;;;8.96;100.00
55610;BME280;41486;52.502;13.486;2023-02-21T03:24:37;100514.47;;;9.01;100.00
55610;BME280;41486;52.502;13.486;2023-02-21T03:27:07;100522.22;;;9.03;100.00
55610;BME280;41486;52.502;13.486;2023-02-21T03:29:48;100514.03;;;9.07;100.00
55610;BME280;41486;52.502;13.486;2023-02-21T03:32:23;100512.56;;;9.03;100.00
55610;BME280;41486;52.502;13.486;2023-02-21T03:34:52;100523.34;;;9.11;100.00
55610;BME280;41486;52.502;13.486;2023-02-21T03:37:29;100525.97;;;9.11;100.00
55610;BME280;41486;52.502;13.486;2023-02-21T03:39:59;100542.66;;;9.10;100.00
55610;BME280;41486;52.502;13.486;2023-02-21T03:42:29;100520.38;;;9.16;100.00
55610;BME280;41486;52.502;13.486;2023-02-21T03:44:57;100526.69;;;9.13;100.00
55610;BME280;41486;52.502;13.486;2023-02-21T03:47:25;100518.00;;;9.13;100.00
55610;BME280;41486;52.502;13.486;2023-02-21T03:49:53;100520.50;;;9.14;100.00
55610;BME280;41486;52.502;13.486;2023-02-21T03:52:23;100527.19;;;9.19;100.00
55610;BME280;41486;52.502;13.486;2023-02-21T03:54:51;100524.34;;;9.22;100.00
55610;BME280;41486;52.502;13.486;2023-02-21T03:57:21;100516.94;;;9.15;100.00
55610;BME280;41486;52.502;13.486;2023-02-21T03:59:49;100532.34;;;9.20;100.00
55610;BME280;41486;52.502;13.486;2023-02-21T04:02:17;100531.16;;;9.24;100.00
55610;BME280;41486;52.502;13.486;2023-02-21T04:04:45;100539.28;;;9.21;100.00
55610;BME280;41486;52.502;13.486;2023-02-21T04:07:17;100544.19;;;9.26;100.00
55610;BME280;41486;52.502;13.486;2023-02-21T04:09:48;100547.19;;;9.32;100.00
55610;BME280;41486;52.502;13.486;2023-02-21T04:12:23;100551.31;;;9.37;100.00
55610;BME280;41486;52.502;13.486;2023-02-21T04:14:51;100543.41;;;9.37;100.00
55610;BME280;41486;52.502;13.486;2023-02-21T04:17:22;100530.91;;;9.40;100.00
55610;BME280;41486;52.502;13.486;2023-02-21T04:19:51;100555.84;;;9.46;100.00
55610;BME280;41486;52.502;13.486;2023-02-21T04:22:19;100541.91;;;9.45;100.00
55610;BME280;41486;52.502;13.486;2023-02-21T04:24:49;100548.81;;;9.46;100.00
55610;BME280;41486;52.502;13.486;2023-02-21T04:27:18;100551.22;;;9.50;100.00
55610;BME280;41486;52.502;13.486;2023-02-21T04:29:51;100545.88;;;9.51;100.00
55610;BME280;41486;52.502;13.486;2023-02-21T04:32:19;100550.28;;;9.51;100.00
55610;BME280;41486;52.502;13.486;2023-02-21T04:34:48;100540.63;;;9.51;100.00
55610;BME280;41486;52.502;13.486;2023-02-21T04:37:16;100551.72;;;9.55;100.00
55610;BME280;41486;52.502;13.486;2023-02-21T04:39:44;100553.50;;;9.54;100.00
55610;BME280;41486;52.502;13.486;2023-02-21T04:42:15;100549.56;;;9.49;100.00
55610;BME280;41486;52.502;13.486;2023-02-21T04:44:43;100548.25;;;9.54;100.00
55610;BME280;41486;52.502;13.486;2023-02-21T04:47:25;100548.59;;;9.50;100.00
55610;BME280;41486;52.502;13.486;2023-02-21T04:49:53;100558.38;;;9.47;100.00
55610;BME280;41486;52.502;13.486;2023-02-21T04:52:21;100537.25;;;9.49;100.00
55610;BME280;41486;52.502;13.486;2023-02-21T04:54:49;100544.19;;;9.50;100.00
55610;BME280;41486;52.502;13.486;2023-02-21T04:57:18;100547.97;;;9.46;100.00
55610;BME280;41486;52.502;13.486;2023-02-21T04:59:46;100551.06;;;9.40;100.00
55610;BME280;41486;52.502;13.486;2023-02-21T05:02:14;100544.38;;;9.36;100.00
55610;BME280;41486;52.502;13.486;2023-02-21T05:04:41;100555.28;;;9.29;100.00
55610;BME280;41486;52.502;13.486;2023-02-21T05:07:10;100548.31;;;9.17;100.00
55610;BME280;41486;52.502;13.486;2023-02-21T05:09:38;100567.75;;;9.14;100.00
55610;BME280;41486;52.502;13.486;2023-02-21T05:12:06;100557.69;;;9.08;100.00
55610;BME280;41486;52.502;13.486;2023-02-21T05:14:39;100560.41;;;9.07;100.00
55610;BME280;41486;52.502;13.486;2023-02-21T05:17:08;100562.75;;;8.98;100.00
55610;BME280;41486;52.502;13.486;2023-02-21T05:19:36;100566.44;;;8.96;100.00
55610;BME280;41486;52.502;13.486;2023-02-21T05:22:04;100561.31;;;8.94;100.00
55610;BME280;41486;52.502;13.486;2023-02-21T05:24:33;100557.81;;;8.94;100.00
55610;BME280;41486;52.502;13.486;2023-02-21T05:27:01;100556.78;;;8.96;100.00
55610;BME280;41486;52.502;13.486;2023-02-21T05:29:29;100558.69;;;8.94;100.00
55610;BME280;41486;52.502;13.486;2023-02-21T05:32:23;100574.63;;;8.91;100.00
55610;BME280;41486;52.502;13.486;2023-02-21T05:34:55;100572.25;;;8.88;100.00
55610;BME280;41486;52.502;13.486;2023-02-21T05:37:23;100560.81;;;8.89;100.00
55610;BME280;41486;52.502;13.486;2023-02-21T05:39:51;100579.50;;;8.84;100.00
55610;BME280;41486;52.502;13.486;2023-02-21T05:42:19;100579.50;;;8.84;100.00
55610;BME280;41486;52.502;13.486;2023-02-21T05:44:47;100582.94;;;8.85;100.00
55610;BME280;41486;52.502;13.486;2023-02-21T05:47:15;100585.88;;;8.80;100.00
55610;BME280;41486;52.502;13.486;2023-02-21T05:49:44;100587.38;;;8.84;100.00
55610;BME280;41486;52.502;13.486;2023-02-21T05:52:14;100592.81;;;8.81;100.00
55610;BME280;41486;52.502;13.486;2023-02-21T05:54:43;100587.69;;;8.80;100.00
55610;BME280;41486;52.502;13.486;2023-02-21T05:57:11;100592.81;;;8.81;100.00
55610;BME280;41486;52.502;13.486;2023-02-21T05:59:39;100604.88;;;8.84;100.00
55610;BME280;41486;52.502;13.486;2023-02-21T06:02:07;100596.25;;;8.82;100.00
55610;BME280;41486;52.502;13.486;2023-02-21T06:04:35;100590.94;;;8.83;100.00
55610;BME280;41486;52.502;13.486;2023-02-21T06:07:04;100610.25;;;8.82;100.00
55610;BME280;41486;52.502;13.486;2023-02-21T06:09:32;100614.63;;;8.82;100.00
55610;BME280;41486;52.502;13.486;2023-02-21T06:12:00;100603.31;;;8.81;100.00
55610;BME280;41486;52.502;13.486;2023-02-21T06:14:28;100617.38;;;8.80;100.00
55610;BME280;41486;52.502;13.486;2023-02-21T06:16:56;100635.22;;;8.75;100.00
55610;BME280;41486;52.502;13.486;2023-02-21T06:19:24;100616.63;;;8.78;100.00
55610;BME280;41486;52.502;13.486;2023-02-21T06:21:52;100635.94;;;8.77;100.00
55610;BME280;41486;52.502;13.486;2023-02-21T06:24:21;100632.38;;;8.78;100.00
55610;BME280;41486;52.502;13.486;2023-02-21T06:26:49;100637.00;;;8.75;100.00
55610;BME280;41486;52.502;13.486;2023-02-21T06:29:17;100628.94;;;8.78;100.00
55610;BME280;41486;52.502;13.486;2023-02-21T06:31:45;100641.41;;;8.74;100.00
55610;BME280;41486;52.502;13.486;2023-02-21T06:34:13;100643.63;;;8.80;100.00
55610;BME280;41486;52.502;13.486;2023-02-21T06:36:41;100636.91;;;8.76;100.00
55610;BME280;41486;52.502;13.486;2023-02-21T06:39:09;100656.09;;;8.77;100.00
55610;BME280;41486;52.502;13.486;2023-02-21T06:41:39;100661.47;;;8.75;100.00
55610;BME280;41486;52.502;13.486;2023-02-21T06:44:06;100662.84;;;8.68;100.00
55610;BME280;41486;52.502;13.486;2023-02-21T06:46:34;100663.16;;;8.76;100.00
55610;BME280;41486;52.502;13.486;2023-02-21T06:49:04;100659.47;;;8.79;100.00
55610;BME280;41486;52.502;13.486;2023-02-21T06:51:33;100675.22;;;8.79;100.00
55610;BME280;41486;52.502;13.486;2023-02-21T06:54:02;100668.16;;;8.79;100.00
55610;BME280;41486;52.502;13.486;2023-02-21T06:56:30;100664.81;;;8.77;100.00
55610;BME280;41486;52.502;13.486;2023-02-21T06:58:59;100682.16;;;8.80;100.00
55610;BME280;41486;52.502;13.486;2023-02-21T07:01:29;100678.66;;;8.79;100.00
55610;BME280;41486;52.502;13.486;2023-02-21T07:03:57;100682.16;;;8.80;100.00
55610;BME280;41486;52.502;13.486;2023-02-21T07:06:25;100698.41;;;8.85;100.00
55610;BME280;41486;52.502;13.486;2023-02-21T07:08:55;100697.88;;;8.80;100.00
55610;BME280;41486;52.502;13.486;2023-02-21T07:11:23;100702.19;;;8.81;100.00
55610;BME280;41486;52.502;13.486;2023-02-21T07:13:52;100701.47;;;8.79;100.00
55610;BME280;41486;52.502;13.486;2023-02-21T07:16:24;100704.81;;;8.81;100.00
55610;BME280;41486;52.502;13.486;2023-02-21T07:18:52;100717.09;;;8.80;100.00
55610;BME280;41486;52.502;13.486;2023-02-21T07:21:20;100717.94;;;8.81;100.00
55610;BME280;41486;52.502;13.486;2023-02-21T07:23:48;100724.84;;;8.82;100.00
55610;BME280;41486;52.502;13.486;2023-02-21T07:26:16;100725.81;;;8.81;100.00
55610;BME280;41486;52.502;13.486;2023-02-21T07:28:46;100727.56;;;8.80;100.00
55610;BME280;41486;52.502;13.486;2023-02-21T07:31:14;100726.53;;;8.83;100.00
55610;BME280;41486;52.502;13.486;2023-02-21T07:33:46;100738.69;;;8.71;100.00
55610;BME280;41486;52.502;13.486;2023-02-21T07:36:16;100739.97;;;8.78;100.00
55610;BME280;41486;52.502;13.486;2023-02-21T07:38:44;100750.03;;;8.72;100.00
55610;BME280;41486;52.502;13.486;2023-02-21T07:41:13;100730.94;;;8.70;100.00
55610;BME280;41486;52.502;13.486;2023-02-21T07:43:41;100734.94;;;8.75;100.00
55610;BME280;41486;52.502;13.486;2023-02-21T07:46:10;100742.16;;;8.72;100.00
55610;BME280;41486;52.502;13.486;2023-02-21T07:48:38;100741.00;;;8.76;100.00
55610;BME280;41486;52.502;13.486;2023-02-21T07:51:08;100736.31;;;8.81;100.00
55610;BME280;41486;52.502;13.486;2023-02-21T07:53:37;100720.88;;;8.76;100.00
55610;BME280;41486;52.502;13.486;2023-02-21T07:56:05;100735.25;;;8.83;100.00
55610;BME280;41486;52.502;13.486;2023-02-21T07:58:33;100744.59;;;8.88;100.00
55610;BME280;41486;52.502;13.486;2023-02-21T08:01:03;100740.28;;;8.87;100.00
55610;BME280;41486;52.502;13.486;2023-02-21T08:03:34;100751.53;;;8.89;100.00
55610;BME280;41486;52.502;13.486;2023-02-21T08:06:03;100759.81;;;8.95;100.00
55610;BME280;41486;52.502;13.486;2023-02-21T08:08:32;100752.78;;;8.96;100.00
55610;BME280;41486;52.502;13.486;2023-02-21T08:11:01;100763.72;;;9.03;100.00
55610;BME280;41486;52.502;13.486;2023-02-21T08:13:28;100768.84;;;9.04;100.00
55610;BME280;41486;52.502;13.486;2023-02-21T08:15:57;100760.16;;;9.04;100.00
55610;BME280;41486;52.502;13.486;2023-02-21T08:18:25;100779.88;;;9.09;100.00
55610;BME280;41486;52.502;13.486;2023-02-21T08:20:54;100775.28;;;9.13;100.00
55610;BME280;41486;52.502;13.486;2023-02-21T08:23:23;100770.66;;;9.17;100.00
55610;BME280;41486;52.502;13.486;2023-02-21T08:25:52;100772.97;;;9.21;100.00
55610;BME280;41486;52.502;13.486;2023-02-21T08:28:22;100792.69;;;9.27;100.00
55610;BME280;41486;52.502;13.486;2023-02-21T08:30:50;100776.41;;;9.22;100.00
55610;BME280;41486;52.502;13.486;2023-02-21T08:33:19;100776.84;;;9.28;100.00
55610;BME280;41486;52.502;13.486;2023-02-21T08:35:49;100772.31;;;9.30;100.00
55610;BME280;41486;52.502;13.486;2023-02-21T08:38:17;100787.03;;;9.33;100.00
55610;BME280;41486;52.502;13.486;2023-02-21T08:40:49;100788.50;;;9.37;100.00
55610;BME280;41486;52.502;13.486;2023-02-21T08:43:38;100783.97;;;9.39;100.00
55610;BME280;41486;52.502;13.486;2023-02-21T08:46:06;100788.38;;;9.39;100.00
55610;BME280;41486;52.502;13.486;2023-02-21T08:48:44;100788.59;;;9.49;100.00
55610;BME280;41486;52.502;13.486;2023-02-21T08:51:12;100798.56;;;9.43;100.00
55610;BME280;41486;52.502;13.486;2023-02-21T08:53:40;100783.66;;;9.44;100.00
55610;BME280;41486;52.502;13.486;2023-02-21T08:56:09;100791.94;;;9.51;100.00
55610;BME280;41486;52.502;13.486;2023-02-21T08:58:39;100788.78;;;9.58;100.00
55610;BME280;41486;52.502;13.486;2023-02-21T09:01:07;100790.56;;;9.58;100.00
55610;BME280;41486;52.502;13.486;2023-02-21T09:03:36;100792.66;;;9.66;100.00
55610;BME280;41486;52.502;13.486;2023-02-21T09:06:04;100787.09;;;9.70;100.00
55610;BME280;41486;52.502;13.486;2023-02-21T09:08:33;100806.56;;;9.68;100.00
55610;BME280;41486;52.502;13.486;2023-02-21T09:11:02;100789.22;;;9.65;100.00
55610;BME280;41486;52.502;13.486;2023-02-21T09:13:30;100801.59;;;9.63;100.00
55610;BME280;41486;52.502;13.486;2023-02-21T09:16:01;100810.94;;;9.67;100.00
55610;BME280;41486;52.502;13.486;2023-02-21T09:18:31;100779.84;;;9.61;100.00
55610;BME280;41486;52.502;13.486;2023-02-21T09:21:02;100795.50;;;9.62;100.00
55610;BME280;41486;52.502;13.486;2023-02-21T09:23:30;100803.69;;;9.58;100.00
55610;BME280;41486;52.502;13.486;2023-02-21T09:26:01;100807.94;;;9.60;100.00
55610;BME280;41486;52.502;13.486;2023-02-21T09:28:29;100812.00;;;9.65;100.00
55610;BME280;41486;52.502;13.486;2023-02-21T09:30:58;100824.84;;;9.56;100.00
55610;BME280;41486;52.502;13.486;2023-02-21T09:33:27;100808.97;;;9.58;100.00
55610;BME280;41486;52.502;13.486;2023-02-21T09:35:56;100829.78;;;9.61;100.00
55610;BME280;41486;52.502;13.486;2023-02-21T09:38:24;100820.09;;;9.61;100.00
55610;BME280;41486;52.502;13.486;2023-02-21T09:40:55;100824.94;;;9.68;100.00
55610;BME280;41486;52.502;13.486;2023-02-21T09:43:29;100837.84;;;9.71;100.00
55610;BME280;41486;52.502;13.486;2023-02-21T09:46:02;100840.16;;;9.62;100.00
55610;BME280;41486;52.502;13.486;2023-02-21T09:48:33;100837.84;;;9.58;100.00
55610;BME280;41486;52.502;13.486;2023-02-21T09:51:04;100850.28;;;9.69;100.00
55610;BME280;41486;52.502;13.486;2023-02-21T09:53:36;100831.47;;;9.62;100.00
55610;BME280;41486;52.502;13.486;2023-02-21T09:56:10;100844.91;;;9.70;100.00
55610;BME280;41486;52.502;13.486;2023-02-21T09:58:42;100854.91;;;9.65;100.00
55610;BME280;41486;52.502;13.486;2023-02-21T10:01:21;100835.22;;;9.71;100.00
55610;BME280;41486;52.502;13.486;2023-02-21T10:04:03;100843.84;;;9.73;100.00
55610;BME280;41486;52.502;13.486;2023-02-21T10:06:38;100857.41;;;9.67;100.00
55610;BME280;41486;52.502;13.486;2023-02-21T10:09:22;100844.16;;;9.68;100.00
55610;BME280;41486;52.502;13.486;2023-02-21T10:12:05;100852.47;;;9.75;99.72
55610;BME280;41486;52.502;13.486;2023-02-21T10:14:42;100851.28;;;9.79;100.00
55610;BME280;41486;52.502;13.486;2023-02-21T10:17:23;100860.53;;;9.85;99.79
55610;BME280;41486;52.502;13.486;2023-02-21T10:20:00;100843.09;;;9.84;99.28
55610;BME280;41486;52.502;13.486;2023-02-21T10:22:32;100856.16;;;9.85;98.20
55610;BME280;41486;52.502;13.486;2023-02-21T10:25:17;100835.94;;;9.86;97.47
55610;BME280;41486;52.502;13.486;2023-02-21T10:27:48;100863.47;;;9.93;98.44
55610;BME280;41486;52.502;13.486;2023-02-21T10:30:22;100861.16;;;9.88;96.55
55610;BME280;41486;52.502;13.486;2023-02-21T10:32:51;100874.00;;;9.80;98.32
55610;BME280;41486;52.502;13.486;2023-02-21T10:35:21;100887.78;;;9.84;96.47
55610;BME280;41486;52.502;13.486;2023-02-21T10:37:50;100883.06;;;9.76;96.29
55610;BME280;41486;52.502;13.486;2023-02-21T10:40:32;100867.59;;;9.84;96.24
55610;BME280;41486;52.502;13.486;2023-02-21T10:43:07;100849.59;;;9.78;97.59
55610;BME280;41486;52.502;13.486;2023-02-21T10:45:39;100856.22;;;9.84;97.43
55610;BME280;41486;52.502;13.486;2023-02-21T10:48:12;100859.47;;;10.00;99.16
55610;BME280;41486;52.502;13.486;2023-02-21T10:50:48;100868.91;;;10.03;98.73
55610;BME280;41486;52.502;13.486;2023-02-21T10:53:28;100870.31;;;9.95;98.00
55610;BME280;41486;52.502;13.486;2023-02-21T10:56:08;100880.50;;;10.00;98.93
55610;BME280;41486;52.502;13.486;2023-02-21T10:58:44;100878.41;;;10.05;98.48
55610;BME280;41486;52.502;13.486;2023-02-21T11:01:17;100878.81;;;9.99;98.47
55610;BME280;41486;52.502;13.486;2023-02-21T11:03:49;100875.47;;;9.97;97.16
55610;BME280;41486;52.502;13.486;2023-02-21T11:06:24;100881.03;;;10.05;98.50
55610;BME280;41486;52.502;13.486;2023-02-21T11:08:57;100886.16;;;10.20;97.09
55610;BME280;41486;52.502;13.486;2023-02-21T11:11:33;100884.84;;;10.25;95.50
55610;BME280;41486;52.502;13.486;2023-02-21T11:14:21;100869.63;;;10.18;94.93
55610;BME280;41486;52.502;13.486;2023-02-21T11:17:08;100862.16;;;10.24;94.81
55610;BME280;41486;52.502;13.486;2023-02-21T11:19:46;100869.97;;;10.13;94.15
55610;BME280;41486;52.502;13.486;2023-02-21T11:22:21;100875.22;;;10.13;93.66
55610;BME280;41486;52.502;13.486;2023-02-21T11:24:57;100895.13;;;10.04;93.81
55610;BME280;41486;52.502;13.486;2023-02-21T11:27:29;100879.97;;;10.08;94.42
55610;BME280;41486;52.502;13.486;2023-02-21T11:30:00;100886.97;;;10.20;92.64
55610;BME280;41486;52.502;13.486;2023-02-21T11:32:32;100868.44;;;10.22;92.19
55610;BME280;41486;52.502;13.486;2023-02-21T11:35:05;100884.34;;;10.20;91.82
55610;BME280;41486;52.502;13.486;2023-02-21T11:37:48;100869.34;;;10.09;90.61
55610;BME280;41486;52.502;13.486;2023-02-21T11:40:32;100863.47;;;10.06;91.61
55610;BME280;41486;52.502;13.486;2023-02-21T11:43:26;100858.69;;;10.11;92.02
55610;BME280;41486;52.502;13.486;2023-02-21T11:46:14;100854.31;;;10.12;90.27
55610;BME280;41486;52.502;13.486;2023-02-21T11:48:55;100867.41;;;10.24;90.04
55610;BME280;41486;52.502;13.486;2023-02-21T11:51:32;100868.56;;;10.20;90.40
55610;BME280;41486;52.502;13.486;2023-02-21T11:54:04;100862.41;;;10.08;88.38
55610;BME280;41486;52.502;13.486;2023-02-21T11:56:51;100859.53;;;10.24;88.97
55610;BME280;41486;52.502;13.486;2023-02-21T11:59:28;100874.34;;;10.25;87.77
55610;BME280;41486;52.502;13.486;2023-02-21T12:02:13;100886.56;;;10.14;88.87
55610;BME280;41486;52.502;13.486;2023-02-21T12:04:54;100862.91;;;10.14;86.80
55610;BME280;41486;52.502;13.486;2023-02-21T12:07:32;100863.63;;;10.16;87.90
55610;BME280;41486;52.502;13.486;2023-02-21T12:10:27;100874.28;;;10.14;87.69
55610;BME280;41486;52.502;13.486;2023-02-21T12:13:02;100879.50;;;10.40;86.56
55610;BME280;41486;52.502;13.486;2023-02-21T12:15:42;100890.75;;;10.29;86.93
55610;BME280;41486;52.502;13.486;2023-02-21T12:18:28;100884.72;;;10.53;85.30
55610;BME280;41486;52.502;13.486;2023-02-21T12:21:10;100889.06;;;10.28;86.08
55610;BME280;41486;52.502;13.486;2023-02-21T12:23:47;100879.94;;;10.21;84.19
55610;BME280;41486;52.502;13.486;2023-02-21T12:26:30;100889.50;;;10.22;83.20
55610;BME280;41486;52.502;13.486;2023-02-21T12:29:08;100914.53;;;10.15;82.89
55610;BME280;41486;52.502;13.486;2023-02-21T12:31:55;100872.91;;;10.08;80.06
55610;BME280;41486;52.502;13.486;2023-02-21T12:34:37;100883.31;;;10.10;79.96
55610;BME280;41486;52.502;13.486;2023-02-21T12:37:17;100880.34;;;10.15;79.12
55610;BME280;41486;52.502;13.486;2023-02-21T12:40:08;100880.16;;;10.18;79.13
55610;BME280;41486;52.502;13.486;2023-02-21T12:43:06;100871.53;;;10.16;79.52
55610;BME280;41486;52.502;13.486;2023-02-21T12:45:51;100876.88;;;10.27;80.10
55610;BME280;41486;52.502;13.486;2023-02-21T12:48:29;100886.13;;;10.33;80.28
55610;BME280;41486;52.502;13.486;2023-02-21T12:51:02;100886.97;;;10.20;80.78
55610;BME280;41486;52.502;13.486;2023-02-21T12:53:35;100870.06;;;10.12;81.55
55610;BME280;41486;52.502;13.486;2023-02-21T12:56:09;100892.50;;;10.04;81.85
55610;BME280;41486;52.502;13.486;2023-02-21T12:58:43;100881.03;;;10.05;83.30
55610;BME280;41486;52.502;13.486;2023-02-21T13:01:16;100894.59;;;9.99;82.75
55610;BME280;41486;52.502;13.486;2023-02-21T13:03:56;100881.44;;;9.99;82.48
55610;BME280;41486;52.502;13.486;2023-02-21T13:06:34;100868.53;;;9.96;81.21
55610;BME280;41486;52.502;13.486;2023-02-21T13:09:12;100852.97;;;9.93;80.66
55610;BME280;41486;52.502;13.486;2023-02-21T13:11:47;100859.59;;;9.99;80.97
55610;BME280;41486;52.502;13.486;2023-02-21T13:14:25;100867.22;;;10.02;81.15
55610;BME280;41486;52.502;13.486;2023-02-21T13:16:55;100887.31;;;10.03;80.71
55610;BME280;41486;52.502;13.486;2023-02-21T13:19:24;100878.19;;;9.95;81.17
55610;BME280;41486;52.502;13.486;2023-02-21T13:22:02;100873.84;;;10.07;81.79